Time;durP1;ratioP1;P1;durP2;ratioP2;P2;SDS_P1;SDS_P2;PMS_P1;PMS_P2;Temp;Humidity;BMP_temperature;BMP_pressure;BME280_temperature;BME280_humidity;BME280_pressure;Samples;Min_cycle;Max_cycle;Signal;HPM_P1;HPM_P2
2024/02/05 00:00:48;;;;;;;21.60;3.50;;;12.20;99.80;;;;;;4266232;27;20066;-61
2024/02/05 00:02:51;;;;;;;22.65;4.75;;;12.30;99.80;;;;;;4266454;27;20121;-62
2024/02/05 00:04:53;;;;;;;23.23;4.38;;;12.30;99.90;;;;;;4266449;27;20046;-62
2024/02/05 00:06:55;;;;;;;15.85;4.00;;;12.20;99.70;;;;;;4266482;27;20542;-62
2024/02/05 00:08:58;;;;;;;15.23;3.90;;;12.20;99.80;;;;;;4266265;27;20103;-62
2024/02/05 00:11:00;;;;;;;17.25;3.67;;;12.20;99.90;;;;;;4267523;27;20047;-65
2024/02/05 00:13:02;;;;;;;16.95;4.10;;;12.10;99.70;;;;;;4267209;27;20038;-64
2024/02/05 00:15:07;;;;;;;15.43;3.65;;;12.20;99.90;;;;;;4248575;27;20054;-63
2024/02/05 00:17:10;;;;;;;19.13;3.95;;;12.20;99.90;;;;;;4265916;27;20494;-63
2024/02/05 00:19:12;;;;;;;23.25;4.10;;;12.20;99.80;;;;;;4266364;27;20038;-63
2024/02/05 00:21:14;;;;;;;19.60;3.88;;;12.20;99.90;;;;;;4265931;27;20080;-63
2024/02/05 00:23:17;;;;;;;20.75;4.97;;;12.20;99.90;;;;;;4265702;27;20046;-66
2024/02/05 00:25:22;;;;;;;17.25;4.32;;;12.20;99.60;;;;;;4266129;27;20054;-64
2024/02/05 00:27:24;;;;;;;14.60;4.05;;;12.30;99.90;;;;;;4266182;27;20192;-63
2024/02/05 00:29:26;;;;;;;17.50;4.05;;;12.20;99.90;;;;;;4265521;27;20490;-63
2024/02/05 00:31:29;;;;;;;19.10;3.83;;;12.20;99.90;;;;;;4265890;27;20062;-62
2024/02/05 00:33:33;;;;;;;19.38;4.38;;;12.20;99.90;;;;;;4265708;27;20086;-62
2024/02/05 00:35:36;;;;;;;16.38;3.78;;;12.20;99.90;;;;;;4265820;27;20493;-65
2024/02/05 00:37:38;;;;;;;14.13;3.55;;;12.20;99.90;;;;;;4248035;27;20683;-62
2024/02/05 00:39:40;;;;;;;18.67;3.78;;;12.20;99.90;;;;;;4228872;28;20039;-62
2024/02/05 00:41:43;;;;;;;17.05;4.28;;;12.20;99.90;;;;;;4248122;27;20111;-63
2024/02/05 00:43:45;;;;;;;23.70;4.80;;;12.10;99.90;;;;;;4248366;27;20067;-62
2024/02/05 00:45:47;;;;;;;17.90;4.45;;;12.00;99.90;;;;;;4248403;27;20133;-63
2024/02/05 00:47:50;;;;;;;15.20;3.95;;;12.00;99.90;;;;;;4248660;27;20100;-62
2024/02/05 00:49:53;;;;;;;15.80;4.40;;;12.00;99.90;;;;;;4265047;27;20071;-62
2024/02/05 00:51:55;;;;;;;17.85;3.88;;;12.00;99.90;;;;;;4265271;27;20382;-63
2024/02/05 00:53:58;;;;;;;14.20;3.72;;;12.00;99.90;;;;;;4265250;27;20138;-63
2024/02/05 00:56:00;;;;;;;18.73;3.53;;;12.10;99.90;;;;;;4265386;27;20049;-63
2024/02/05 00:58:03;;;;;;;17.77;4.38;;;12.10;99.90;;;;;;4265621;27;20073;-64
2024/02/05 01:00:10;;;;;;;18.35;3.75;;;12.00;99.90;;;;;;4265447;27;20058;-63
2024/02/05 01:02:12;;;;;;;19.10;4.10;;;12.00;99.90;;;;;;4265214;27;20035;-62
2024/02/05 01:04:14;;;;;;;17.35;4.18;;;12.00;99.90;;;;;;4265330;27;20531;-63
2024/02/05 01:06:18;;;;;;;13.82;3.65;;;12.00;99.90;;;;;;4265209;27;20050;-63
2024/02/05 01:08:21;;;;;;;18.30;3.25;;;12.00;99.90;;;;;;4264766;27;20046;-63
2024/02/05 01:10:23;;;;;;;19.27;3.92;;;12.00;99.90;;;;;;4265189;27;20586;-63
2024/02/05 01:12:25;;;;;;;16.85;4.30;;;12.00;99.90;;;;;;4264925;27;20093;-62
2024/02/05 01:14:27;;;;;;;15.45;3.80;;;12.00;99.90;;;;;;4264965;27;20117;-62
2024/02/05 01:16:29;;;;;;;18.73;3.95;;;12.00;99.90;;;;;;4265041;27;20047;-63
2024/02/05 01:18:31;;;;;;;19.13;3.72;;;12.00;99.90;;;;;;4265353;27;20066;-63
2024/02/05 01:20:35;;;;;;;16.85;4.63;;;12.00;99.90;;;;;;4265402;27;20103;-62
2024/02/05 01:22:39;;;;;;;21.40;4.47;;;12.00;99.90;;;;;;4264706;27;20516;-63
2024/02/05 01:24:41;;;;;;;16.15;3.80;;;11.90;99.90;;;;;;4266178;27;20051;-65
2024/02/05 01:26:43;;;;;;;22.35;4.63;;;11.90;99.90;;;;;;4266781;27;20050;-67
2024/02/05 01:28:45;;;;;;;15.13;4.00;;;11.90;99.90;;;;;;4266299;27;20077;-64
2024/02/05 01:30:47;;;;;;;19.25;3.95;;;11.90;99.90;;;;;;4265188;27;20091;-62
2024/02/05 01:32:49;;;;;;;15.70;4.10;;;11.90;99.90;;;;;;4264889;27;20046;-64
2024/02/05 01:34:52;;;;;;;20.20;4.00;;;12.00;99.90;;;;;;4264591;27;20446;-62
2024/02/05 01:36:54;;;;;;;18.23;4.63;;;12.00;99.90;;;;;;4264191;27;20441;-62
2024/02/05 01:38:57;;;;;;;15.52;4.07;;;12.00;99.90;;;;;;4264585;27;20054;-64
2024/02/05 01:40:59;;;;;;;20.70;3.97;;;12.00;99.90;;;;;;4264913;27;20091;-62
2024/02/05 01:43:02;;;;;;;22.30;3.90;;;12.10;99.90;;;;;;4264807;27;20049;-64
2024/02/05 01:45:05;;;;;;;29.55;4.68;;;12.10;99.90;;;;;;4246621;27;20055;-63
2024/02/05 01:47:07;;;;;;;17.35;5.00;;;12.10;99.90;;;;;;4265108;27;20062;-63
2024/02/05 01:49:10;;;;;;;15.50;3.78;;;12.10;99.90;;;;;;4264996;27;20454;-62
2024/02/05 01:51:14;;;;;;;16.85;3.75;;;12.10;99.90;;;;;;4245465;27;20498;-62
2024/02/05 01:53:18;;;;;;;20.52;4.22;;;12.00;99.90;;;;;;4264460;27;20082;-63
2024/02/05 01:55:24;;;;;;;17.30;3.85;;;12.00;99.90;;;;;;4264568;27;20413;-62
2024/02/05 01:57:26;;;;;;;20.50;4.00;;;12.00;99.90;;;;;;4264791;27;20137;-62
2024/02/05 01:59:29;;;;;;;18.15;3.53;;;12.00;99.90;;;;;;4264726;27;20043;-65
2024/02/05 02:01:34;;;;;;;14.82;4.00;;;12.00;99.90;;;;;;4264673;27;20065;-63
2024/02/05 02:03:39;;;;;;;14.68;4.22;;;11.90;99.90;;;;;;4264904;27;20477;-62
2024/02/05 02:05:42;;;;;;;21.25;4.72;;;12.00;99.90;;;;;;4264279;27;20122;-63
2024/02/05 02:07:45;;;;;;;18.02;4.22;;;11.90;99.90;;;;;;4264569;27;20138;-62
2024/02/05 02:09:49;;;;;;;17.10;3.88;;;11.90;99.90;;;;;;4264716;27;20099;-63
2024/02/05 02:11:52;;;;;;;16.08;4.32;;;12.00;99.90;;;;;;4264254;27;20046;-63
2024/02/05 02:13:54;;;;;;;15.38;3.92;;;11.90;99.90;;;;;;4264376;27;20057;-67
2024/02/05 02:15:57;;;;;;;17.23;3.63;;;11.90;99.90;;;;;;4264450;27;20137;-61
2024/02/05 02:18:02;;;;;;;15.55;3.53;;;11.90;99.90;;;;;;4264489;27;20049;-62
2024/02/05 02:20:07;;;;;;;21.13;3.92;;;11.80;99.90;;;;;;4264195;27;20123;-63
2024/02/05 02:22:20;;;;;;;18.48;3.67;;;11.90;99.90;;;;;;4264631;27;20038;-63
2024/02/05 02:24:24;;;;;;;18.02;3.90;;;11.90;99.90;;;;;;4264548;27;20047;-62
2024/02/05 02:26:26;;;;;;;13.68;3.85;;;11.90;99.90;;;;;;4264300;27;20039;-66
2024/02/05 02:28:29;;;;;;;11.90;3.45;;;11.90;99.90;;;;;;4264243;27;20043;-63
2024/02/05 02:30:31;;;;;;;21.27;3.70;;;11.90;99.90;;;;;;4264547;27;20103;-63
2024/02/05 02:32:43;;;;;;;16.95;3.28;;;11.90;99.90;;;;;;4264571;27;20043;-63
2024/02/05 02:34:48;;;;;;;11.68;3.22;;;11.80;99.90;;;;;;4263894;27;20049;-63
2024/02/05 02:36:56;;;;;;;17.58;4.28;;;11.90;99.90;;;;;;4246003;27;20421;-62
2024/02/05 02:39:03;;;;;;;14.75;3.78;;;12.00;99.90;;;;;;4264301;27;20121;-62
2024/02/05 02:41:14;;;;;;;19.98;4.10;;;11.90;99.90;;;;;;4264577;27;20524;-63
2024/02/05 02:43:19;;;;;;;16.85;3.42;;;11.90;99.90;;;;;;4264347;27;20046;-62
2024/02/05 02:45:22;;;;;;;10.23;3.05;;;12.00;99.90;;;;;;4264105;27;20050;-62
2024/02/05 02:47:24;;;;;;;15.57;3.58;;;12.00;99.90;;;;;;4264353;27;20050;-62
2024/02/05 02:49:29;;;;;;;15.25;3.60;;;11.90;99.90;;;;;;4264135;27;20067;-63
2024/02/05 02:51:31;;;;;;;19.73;3.72;;;11.90;99.90;;;;;;4264019;27;20073;-62
2024/02/05 02:53:33;;;;;;;20.85;3.53;;;11.90;99.90;;;;;;4264774;27;20046;-65
2024/02/05 02:55:37;;;;;;;20.33;3.88;;;12.00;99.90;;;;;;4264412;27;20414;-63
2024/02/05 02:57:40;;;;;;;12.80;3.72;;;11.90;99.90;;;;;;4264744;27;20034;-67
2024/02/05 02:59:42;;;;;;;21.50;3.80;;;11.90;99.90;;;;;;4246620;27;20410;-65
2024/02/05 03:01:44;;;;;;;16.13;3.38;;;12.00;99.90;;;;;;4264092;27;20038;-64
2024/02/05 03:03:47;;;;;;;14.27;3.25;;;12.00;99.90;;;;;;4266941;27;20066;-62
2024/02/05 03:05:50;;;;;;;16.17;3.22;;;12.00;99.90;;;;;;4267124;27;20130;-62
2024/02/05 03:07:53;;;;;;;12.45;2.78;;;12.00;99.90;;;;;;4267175;27;20073;-61
2024/02/05 03:09:55;;;;;;;15.90;3.40;;;11.90;99.90;;;;;;4266941;27;20047;-62
2024/02/05 03:11:57;;;;;;;16.40;3.60;;;12.00;99.90;;;;;;4267099;27;20110;-62
2024/02/05 03:14:01;;;;;;;15.55;3.53;;;12.10;99.90;;;;;;4267282;27;20046;-62
2024/02/05 03:16:04;;;;;;;13.15;2.95;;;12.00;99.70;;;;;;4267085;27;20492;-62
2024/02/05 03:18:06;;;;;;;13.13;3.53;;;12.00;99.90;;;;;;4267161;27;20061;-61
2024/02/05 03:20:09;;;;;;;14.25;3.45;;;11.90;99.90;;;;;;4267415;27;20409;-62
2024/02/05 03:22:12;;;;;;;20.70;3.95;;;11.90;99.90;;;;;;4267275;27;20047;-61
2024/02/05 03:24:14;;;;;;;18.50;3.17;;;11.90;99.90;;;;;;4248512;27;20051;-63
2024/02/05 03:26:16;;;;;;;15.30;3.10;;;11.90;99.90;;;;;;4266748;27;20485;-62
2024/02/05 03:28:18;;;;;;;19.20;3.17;;;11.90;99.90;;;;;;4267458;27;20122;-65
2024/02/05 03:30:22;;;;;;;16.63;3.30;;;12.00;99.90;;;;;;4249231;27;20050;-62
2024/02/05 03:32:24;;;;;;;15.00;3.13;;;12.00;99.90;;;;;;4266807;27;20527;-62
2024/02/05 03:34:26;;;;;;;15.35;3.13;;;12.00;99.90;;;;;;4267256;27;20103;-63
2024/02/05 03:36:28;;;;;;;14.85;3.15;;;12.10;99.70;;;;;;4266726;27;20068;-62
2024/02/05 03:38:31;;;;;;;17.35;3.22;;;12.00;99.60;;;;;;4266788;27;20054;-63
2024/02/05 03:40:33;;;;;;;14.93;3.17;;;12.00;99.50;;;;;;4266863;27;20046;-63
2024/02/05 03:42:35;;;;;;;12.63;2.83;;;12.10;99.70;;;;;;4266838;27;20046;-63
2024/02/05 03:44:37;;;;;;;20.08;3.80;;;12.00;99.20;;;;;;4248232;27;20128;-62
2024/02/05 03:46:42;;;;;;;13.88;3.03;;;12.10;99.50;;;;;;4248168;27;20043;-63
2024/02/05 03:48:50;;;;;;;;;;;12.00;99.70;;;;;;4267085;27;20039;-68
2024/02/05 03:50:52;;;;;;;17.88;3.78;;;12.00;99.30;;;;;;4266556;27;19927;-63
2024/02/05 03:52:54;;;;;;;13.43;2.90;;;11.90;99.50;;;;;;4266415;27;20043;-62
2024/02/05 03:54:56;;;;;;;9.95;3.20;;;11.90;99.40;;;;;;4266330;27;20070;-65
2024/02/05 03:56:59;;;;;;;14.07;2.50;;;11.90;99.40;;;;;;4266412;27;20121;-62
2024/02/05 03:59:01;;;;;;;15.82;3.95;;;11.90;99.60;;;;;;4266251;27;20053;-64
2024/02/05 04:01:03;;;;;;;15.85;3.33;;;12.00;99.40;;;;;;4265902;27;20121;-62
2024/02/05 04:03:07;;;;;;;13.65;2.85;;;11.90;99.00;;;;;;4266033;27;20049;-62
2024/02/05 04:05:09;;;;;;;17.27;3.17;;;11.90;99.30;;;;;;4247711;27;20078;-63
2024/02/05 04:07:11;;;;;;;10.95;2.80;;;11.90;99.10;;;;;;4265976;27;20047;-63
2024/02/05 04:09:13;;;;;;;15.95;2.70;;;11.90;99.40;;;;;;4266149;27;20470;-62
2024/02/05 04:11:15;;;;;;;16.00;3.30;;;12.00;99.20;;;;;;4265877;27;20043;-62
2024/02/05 04:13:17;;;;;;;12.25;2.83;;;12.00;99.30;;;;;;4265888;27;20050;-63
2024/02/05 04:15:20;;;;;;;12.88;3.05;;;12.00;98.90;;;;;;4265878;27;20477;-63
2024/02/05 04:17:23;;;;;;;14.65;3.88;;;12.00;99.00;;;;;;4266207;27;20099;-64
2024/02/05 04:19:26;;;;;;;19.38;3.92;;;12.00;98.90;;;;;;4266297;27;20496;-63
2024/02/05 04:21:28;;;;;;;11.68;3.17;;;11.90;98.70;;;;;;4266470;27;20390;-65
2024/02/05 04:23:30;;;;;;;8.63;2.72;;;11.90;98.90;;;;;;4267350;27;20047;-65
2024/02/05 04:25:32;;;;;;;21.35;4.20;;;11.90;98.90;;;;;;4266894;27;20050;-66
2024/02/05 04:27:35;;;;;;;21.10;3.70;;;11.90;99.00;;;;;;4266335;27;20439;-62
2024/02/05 04:29:40;;;;;;;18.77;3.30;;;11.90;99.20;;;;;;4265783;27;20494;-63
2024/02/05 04:31:42;;;;;;;19.13;3.70;;;11.80;99.00;;;;;;4265796;27;20125;-62
2024/02/05 04:33:44;;;;;;;18.48;2.95;;;11.80;99.00;;;;;;4265592;27;20964;-63
2024/02/05 04:35:48;;;;;;;15.18;3.85;;;11.80;99.10;;;;;;4265364;27;20053;-63
2024/02/05 04:37:50;;;;;;;14.73;3.13;;;11.80;99.20;;;;;;4265354;27;20049;-63
2024/02/05 04:39:52;;;;;;;18.92;3.35;;;11.90;99.10;;;;;;4265611;27;20054;-62
2024/02/05 04:41:54;;;;;;;13.23;3.38;;;11.80;99.00;;;;;;4265572;27;20482;-63
2024/02/05 04:43:56;;;;;;;17.23;3.97;;;11.80;98.90;;;;;;4265197;27;20123;-62
2024/02/05 04:45:59;;;;;;;18.63;3.63;;;11.80;98.90;;;;;;4265818;27;20042;-62
2024/02/05 04:48:04;;;;;;;17.17;3.67;;;11.70;98.90;;;;;;4265375;27;20046;-62
2024/02/05 04:50:08;;;;;;;21.88;3.35;;;11.70;99.00;;;;;;4265505;27;20097;-62
2024/02/05 04:52:11;;;;;;;14.15;2.85;;;11.70;99.10;;;;;;4265674;27;20069;-63
2024/02/05 04:54:13;;;;;;;12.05;3.53;;;11.80;99.20;;;;;;4246749;27;20047;-63
2024/02/05 04:56:15;;;;;;;13.63;3.38;;;11.80;99.30;;;;;;4265422;27;20046;-63
2024/02/05 04:58:19;;;;;;;22.23;3.53;;;11.80;99.50;;;;;;4265381;27;20418;-63
2024/02/05 05:00:21;;;;;;;24.17;4.15;;;11.70;98.80;;;;;;4265264;27;20075;-62
2024/02/05 05:02:24;;;;;;;21.95;3.85;;;11.80;99.30;;;;;;4265142;27;20053;-63
2024/02/05 05:04:26;;;;;;;18.77;3.80;;;11.80;98.80;;;;;;4265121;27;20507;-63
2024/02/05 05:06:28;;;;;;;22.55;4.00;;;11.70;98.70;;;;;;4265443;27;20042;-63
2024/02/05 05:08:32;;;;;;;20.02;4.18;;;11.70;98.80;;;;;;4265277;27;20046;-62
2024/02/05 05:10:34;;;;;;;19.42;4.10;;;11.70;98.80;;;;;;4246661;27;20123;-62
2024/02/05 05:12:36;;;;;;;19.60;4.43;;;11.70;98.70;;;;;;4265111;27;20050;-63
2024/02/05 05:14:41;;;;;;;19.88;4.43;;;11.60;98.80;;;;;;4264556;27;20054;-62
2024/02/05 05:16:43;;;;;;;18.52;4.63;;;11.40;98.80;;;;;;4246701;27;20469;-62
2024/02/05 05:18:45;;;;;;;24.73;4.70;;;11.50;98.70;;;;;;4265047;27;20405;-63
2024/02/05 05:20:48;;;;;;;19.25;3.35;;;11.40;98.90;;;;;;4265215;27;20380;-63
2024/02/05 05:22:50;;;;;;;17.33;4.15;;;11.40;99.00;;;;;;4264818;27;20046;-62
2024/02/05 05:24:53;;;;;;;16.45;3.15;;;11.50;99.20;;;;;;4264223;27;20067;-62
2024/02/05 05:26:55;;;;;;;29.67;4.88;;;11.50;99.30;;;;;;4265123;27;20121;-62
2024/02/05 05:28:57;;;;;;;18.33;4.40;;;11.50;99.00;;;;;;4264834;27;20042;-62
2024/02/05 05:31:00;;;;;;;19.52;4.38;;;11.40;98.90;;;;;;4264734;27;20046;-62
2024/02/05 05:33:02;;;;;;;15.20;4.20;;;11.40;99.20;;;;;;4264782;27;20047;-62
2024/02/05 05:35:05;;;;;;;11.48;3.45;;;11.40;99.30;;;;;;4264873;27;20129;-63
2024/02/05 05:37:12;;;;;;;22.67;4.72;;;11.40;99.40;;;;;;4264632;27;20236;-62
2024/02/05 05:39:15;;;;;;;29.75;4.60;;;11.40;99.20;;;;;;4264635;27;20062;-63
2024/02/05 05:41:19;;;;;;;20.25;4.78;;;11.50;99.40;;;;;;4264915;27;20362;-68
2024/02/05 05:43:21;;;;;;;23.38;5.10;;;11.50;99.40;;;;;;4264582;27;20094;-62
2024/02/05 05:45:24;;;;;;;18.35;4.03;;;11.50;99.40;;;;;;4264968;27;20455;-63
2024/02/05 05:47:26;;;;;;;28.65;5.07;;;11.50;98.90;;;;;;4264699;27;20474;-62
2024/02/05 05:49:30;;;;;;;19.52;4.82;;;11.30;98.90;;;;;;4264469;27;20072;-65
2024/02/05 05:51:32;;;;;;;16.45;3.60;;;11.40;99.30;;;;;;4264542;27;20539;-62
2024/02/05 05:53:34;;;;;;;15.15;4.00;;;11.40;99.00;;;;;;4264308;27;20421;-66
2024/02/05 05:55:37;;;;;;;24.23;4.95;;;11.50;99.20;;;;;;4264610;27;20050;-63
2024/02/05 05:57:41;;;;;;;20.33;4.57;;;11.40;98.90;;;;;;4264275;27;20066;-63
2024/02/05 05:59:43;;;;;;;23.63;4.30;;;11.40;99.10;;;;;;4264368;27;20046;-63
2024/02/05 06:01:45;;;;;;;15.75;3.67;;;11.30;99.10;;;;;;4264718;27;20039;-62
2024/02/05 06:03:48;;;;;;;25.10;4.85;;;11.40;99.40;;;;;;4264393;27;20473;-62
2024/02/05 06:05:50;;;;;;;22.92;4.35;;;11.30;98.60;;;;;;4246117;28;20050;-62
2024/02/05 06:07:52;;;;;;;21.95;4.45;;;11.20;99.10;;;;;;4264409;27;20081;-64
2024/02/05 06:09:54;;;;;;;16.88;3.88;;;11.20;99.00;;;;;;4264486;27;20126;-61
2024/02/05 06:11:56;;;;;;;19.45;3.72;;;11.20;99.40;;;;;;4264410;27;20043;-63
2024/02/05 06:14:00;;;;;;;23.63;5.03;;;11.20;99.30;;;;;;4264512;27;20047;-63
2024/02/05 06:16:08;;;;;;;18.88;4.82;;;11.10;99.10;;;;;;4264625;27;20042;-62
2024/02/05 06:18:10;;;;;;;21.85;4.20;;;11.20;99.50;;;;;;4264554;27;20400;-63
2024/02/05 06:20:12;;;;;;;23.17;4.95;;;11.10;99.50;;;;;;4265064;27;20451;-62
2024/02/05 06:22:19;;;;;;;17.05;4.05;;;11.10;99.10;;;;;;4246666;27;20047;-63
2024/02/05 06:24:21;;;;;;;15.77;4.82;;;11.20;99.50;;;;;;4264385;27;20447;-63
2024/02/05 06:26:23;;;;;;;16.00;4.07;;;11.20;99.30;;;;;;4263889;27;20085;-63
2024/02/05 06:28:25;;;;;;;23.23;5.72;;;11.30;99.70;;;;;;4264349;27;20073;-61
2024/02/05 06:30:28;;;;;;;15.98;5.05;;;11.30;99.00;;;;;;4245857;28;20047;-62
2024/02/05 06:32:30;;;;;;;23.83;4.97;;;11.20;99.20;;;;;;4264225;27;20481;-62
2024/02/05 06:34:33;;;;;;;18.55;5.25;;;11.30;99.30;;;;;;4265318;27;20042;-72
2024/02/05 06:36:36;;;;;;;20.20;5.15;;;11.30;99.20;;;;;;4248596;27;20542;-65
2024/02/05 06:38:39;;;;;;;19.67;4.78;;;11.30;99.20;;;;;;4250163;27;20047;-62
2024/02/05 06:40:41;;;;;;;21.60;4.90;;;11.30;99.20;;;;;;4267588;27;20055;-66
2024/02/05 06:42:44;;;;;;;26.20;4.65;;;11.20;99.30;;;;;;4269234;27;20103;-70
2024/02/05 06:44:47;;;;;;;21.85;4.45;;;11.30;99.60;;;;;;4250191;27;20047;-64
2024/02/05 06:46:50;;;;;;;16.55;4.68;;;11.30;99.50;;;;;;4268690;27;20047;-61
2024/02/05 06:48:53;;;;;;;17.25;4.43;;;11.20;99.30;;;;;;4268101;27;20042;-63
2024/02/05 06:50:56;;;;;;;16.92;5.00;;;11.20;99.30;;;;;;4268350;27;20045;-67
2024/02/05 06:52:59;;;;;;;18.10;4.50;;;11.10;99.40;;;;;;4268836;27;20059;-62
2024/02/05 06:55:01;;;;;;;16.38;4.47;;;11.10;99.40;;;;;;4268368;27;20049;-64
2024/02/05 06:57:03;;;;;;;19.10;4.57;;;11.10;99.30;;;;;;4268399;27;20102;-62
2024/02/05 06:59:05;;;;;;;19.13;4.55;;;11.10;99.40;;;;;;4269304;27;20496;-63
2024/02/05 07:01:07;;;;;;;18.38;5.13;;;11.10;99.50;;;;;;4269500;27;20091;-62
2024/02/05 07:03:11;;;;;;;20.35;5.45;;;11.10;99.40;;;;;;4269606;27;20043;-62
2024/02/05 07:05:16;;;;;;;15.50;4.85;;;11.20;99.60;;;;;;4268937;27;20557;-66
2024/02/05 07:07:18;;;;;;;20.10;5.15;;;11.20;99.70;;;;;;4269153;27;20046;-65
2024/02/05 07:09:22;;;;;;;17.92;4.80;;;11.20;99.60;;;;;;4268439;27;20493;-68
2024/02/05 07:11:24;;;;;;;16.85;4.35;;;11.20;99.50;;;;;;4267778;27;20474;-66
2024/02/05 07:13:26;;;;;;;20.88;4.88;;;11.30;99.40;;;;;;4267525;27;20045;-65
2024/02/05 07:15:28;;;;;;;12.55;3.95;;;11.20;99.80;;;;;;4267519;27;20163;-67
2024/02/05 07:17:32;;;;;;;17.45;4.82;;;11.20;99.40;;;;;;4267897;27;20049;-64
2024/02/05 07:19:36;;;;;;;20.63;5.30;;;10.90;99.30;;;;;;4232939;28;20048;-64
2024/02/05 07:21:38;;;;;;;19.55;5.10;;;10.80;99.70;;;;;;4268980;27;20470;-69
2024/02/05 07:23:41;;;;;;;12.50;4.22;;;10.90;99.80;;;;;;4268017;27;20042;-63
2024/02/05 07:25:44;;;;;;;23.58;5.30;;;11.00;99.60;;;;;;4267308;27;20047;-63
2024/02/05 07:27:46;;;;;;;17.45;4.30;;;11.00;99.80;;;;;;4267062;27;20047;-63
2024/02/05 07:29:48;;;;;;;20.33;4.97;;;11.10;99.60;;;;;;4266848;27;20496;-64
2024/02/05 07:31:51;;;;;;;18.23;4.97;;;11.00;99.60;;;;;;4266943;27;20107;-62
2024/02/05 07:33:53;;;;;;;24.70;4.85;;;11.00;99.60;;;;;;4266669;27;20053;-63
2024/02/05 07:35:58;;;;;;;19.77;4.90;;;11.10;99.70;;;;;;4266804;27;20130;-66
2024/02/05 07:38:00;;;;;;;20.45;4.90;;;11.10;99.80;;;;;;4266514;27;20535;-62
2024/02/05 07:40:04;;;;;;;14.07;4.60;;;11.10;99.80;;;;;;4266767;27;20042;-64
2024/02/05 07:42:07;;;;;;;22.92;5.30;;;11.10;99.80;;;;;;4248292;27;20055;-62
2024/02/05 07:44:09;;;;;;;20.13;5.50;;;11.10;99.50;;;;;;4266846;27;20189;-61
2024/02/05 07:46:11;;;;;;;24.17;4.95;;;11.20;99.70;;;;;;4266887;27;20054;-61
2024/02/05 07:48:13;;;;;;;19.25;4.82;;;11.10;99.30;;;;;;4266019;27;20471;-62
2024/02/05 07:50:16;;;;;;;18.15;4.90;;;11.10;99.50;;;;;;4266806;27;20048;-62
2024/02/05 07:52:20;;;;;;;23.90;5.28;;;11.20;99.80;;;;;;4266970;27;20455;-63
2024/02/05 07:54:27;;;;;;;16.73;4.40;;;11.10;99.40;;;;;;4266040;27;20054;-62
2024/02/05 07:56:30;;;;;;;19.83;5.63;;;11.20;99.60;;;;;;4266160;27;20043;-63
2024/02/05 07:58:33;;;;;;;12.82;4.13;;;11.20;99.50;;;;;;4266390;27;20039;-62
2024/02/05 08:00:35;;;;;;;19.10;3.78;;;11.20;99.50;;;;;;4266345;27;20123;-62
2024/02/05 08:02:37;;;;;;;24.52;5.10;;;11.20;99.40;;;;;;4266238;27;20096;-62
2024/02/05 08:04:40;;;;;;;29.25;5.10;;;11.30;99.20;;;;;;4266006;27;20215;-63
2024/02/05 08:06:42;;;;;;;18.90;4.80;;;11.20;99.40;;;;;;4266194;27;20391;-62
2024/02/05 08:08:46;;;;;;;17.67;5.20;;;11.10;99.60;;;;;;4265836;27;20049;-62
2024/02/05 08:10:48;;;;;;;16.80;5.03;;;11.20;99.50;;;;;;4265833;27;20047;-62
2024/02/05 08:12:51;;;;;;;20.20;5.13;;;11.30;99.70;;;;;;4266096;27;20550;-62
2024/02/05 08:14:53;;;;;;;22.17;5.25;;;11.30;99.30;;;;;;4265774;27;20046;-63
2024/02/05 08:16:55;;;;;;;24.00;6.45;;;11.10;99.50;;;;;;4265927;27;20099;-62
2024/02/05 08:18:57;;;;;;;18.10;4.85;;;11.00;99.70;;;;;;4266382;27;20043;-63
2024/02/05 08:21:00;;;;;;;19.50;5.32;;;11.00;99.60;;;;;;4266604;27;20046;-63
2024/02/05 08:23:02;;;;;;;26.02;5.65;;;11.00;99.70;;;;;;4265797;27;20043;-62
2024/02/05 08:25:06;;;;;;;17.60;5.50;;;11.00;99.70;;;;;;4266172;27;20050;-65
2024/02/05 08:27:09;;;;;;;16.10;4.88;;;11.10;99.70;;;;;;4265950;27;20043;-62
2024/02/05 08:29:11;;;;;;;20.88;6.10;;;11.10;99.60;;;;;;4265936;27;20042;-62
2024/02/05 08:31:13;;;;;;;21.10;5.63;;;11.20;99.90;;;;;;4266151;27;20061;-62
2024/02/05 08:33:15;;;;;;;16.08;4.82;;;11.20;99.40;;;;;;4265780;27;20039;-63
2024/02/05 08:35:17;;;;;;;17.13;5.25;;;11.20;99.60;;;;;;4265566;27;20503;-63
2024/02/05 08:37:19;;;;;;;20.67;5.07;;;11.10;99.30;;;;;;4265397;27;20081;-62
2024/02/05 08:39:21;;;;;;;18.85;5.45;;;11.10;99.80;;;;;;4265461;27;20053;-65
2024/02/05 08:41:25;;;;;;;19.10;5.03;;;11.10;99.40;;;;;;4247207;27;20073;-62
2024/02/05 08:43:27;;;;;;;28.65;5.95;;;11.20;99.50;;;;;;4266597;27;20078;-65
2024/02/05 08:45:30;;;;;;;25.48;5.85;;;11.20;99.50;;;;;;4265901;27;20042;-61
2024/02/05 08:47:32;;;;;;;20.80;5.38;;;11.30;99.20;;;;;;4247585;27;20051;-62
2024/02/05 08:49:34;;;;;;;22.25;5.10;;;11.30;99.30;;;;;;4265491;27;20100;-63
2024/02/05 08:51:37;;;;;;;22.48;4.70;;;11.40;99.30;;;;;;4264977;27;20467;-62
2024/02/05 08:53:39;;;;;;;22.95;4.90;;;11.30;99.20;;;;;;4265223;27;20043;-63
2024/02/05 08:55:41;;;;;;;21.45;5.43;;;11.40;98.90;;;;;;4265592;27;20166;-62
2024/02/05 08:57:49;;;;;;;31.58;5.53;;;11.40;98.90;;;;;;4265657;27;20038;-61
2024/02/05 08:59:51;;;;;;;22.77;5.53;;;11.30;98.80;;;;;;4264179;27;20039;-63
2024/02/05 09:01:53;;;;;;;17.23;5.25;;;11.20;98.80;;;;;;4265242;27;20050;-62
2024/02/05 09:03:55;;;;;;;23.50;5.32;;;11.20;99.10;;;;;;4265078;27;20043;-62
2024/02/05 09:05:57;;;;;;;19.67;5.78;;;11.20;98.90;;;;;;4246558;27;20055;-62
2024/02/05 09:07:59;;;;;;;25.75;4.88;;;11.20;99.20;;;;;;4246538;27;20039;-62
2024/02/05 09:10:02;;;;;;;22.02;6.18;;;11.20;99.00;;;;;;4265364;27;20125;-62
2024/02/05 09:12:05;;;;;;;18.33;5.13;;;11.20;99.00;;;;;;4265119;27;20178;-62
2024/02/05 09:14:10;;;;;;;23.80;5.45;;;11.10;99.20;;;;;;4264891;27;20074;-61
2024/02/05 09:16:13;;;;;;;16.33;5.28;;;11.10;99.30;;;;;;4264975;27;20529;-67
2024/02/05 09:18:15;;;;;;;18.48;4.53;;;11.20;99.30;;;;;;4264714;27;20549;-62
2024/02/05 09:20:17;;;;;;;20.88;6.10;;;11.20;99.10;;;;;;4264655;27;20047;-61
2024/02/05 09:22:19;;;;;;;19.90;5.40;;;11.30;99.20;;;;;;4264929;27;20070;-61
2024/02/05 09:24:23;;;;;;;20.98;5.43;;;11.10;99.20;;;;;;4264664;27;20038;-63
2024/02/05 09:26:25;;;;;;;22.23;5.43;;;11.10;99.10;;;;;;4264853;27;20046;-61
2024/02/05 09:28:27;;;;;;;17.30;5.32;;;11.10;99.20;;;;;;4264950;27;20058;-62
2024/02/05 09:30:31;;;;;;;15.27;4.82;;;11.10;99.50;;;;;;4264585;27;20413;-62
2024/02/05 09:32:33;;;;;;;28.63;5.57;;;11.20;99.20;;;;;;4264839;27;20103;-62
2024/02/05 09:34:36;;;;;;;33.88;6.03;;;11.20;99.40;;;;;;4264163;27;20047;-62
2024/02/05 09:36:38;;;;;;;20.20;5.30;;;11.30;99.10;;;;;;4246509;27;20474;-62
2024/02/05 09:38:40;;;;;;;22.40;5.30;;;11.20;98.90;;;;;;4264635;27;20047;-63
2024/02/05 09:40:42;;;;;;;25.33;6.72;;;11.30;99.20;;;;;;4265093;27;20035;-62
2024/02/05 09:42:45;;;;;;;19.67;4.93;;;11.30;98.80;;;;;;4265190;27;20538;-66
2024/02/05 09:44:50;;;;;;;20.40;6.28;;;11.20;98.90;;;;;;4265320;27;20085;-67
2024/02/05 09:46:55;;;;;;;17.25;5.78;;;11.10;99.00;;;;;;4264682;27;20545;-62
2024/02/05 09:48:59;;;;;;;20.73;5.53;;;11.10;99.10;;;;;;4264301;27;20053;-62
2024/02/05 09:51:01;;;;;;;22.33;5.72;;;11.10;99.00;;;;;;4264684;27;20070;-62
2024/02/05 09:53:05;;;;;;;20.00;6.05;;;11.10;99.00;;;;;;4264511;27;20054;-62
2024/02/05 09:55:10;;;;;;;19.65;5.15;;;11.20;99.00;;;;;;4264924;27;20042;-65
2024/02/05 09:57:13;;;;;;;19.85;5.63;;;11.20;99.20;;;;;;4265199;27;20045;-62
2024/02/05 09:59:15;;;;;;;27.20;5.75;;;11.20;99.00;;;;;;4265022;27;20049;-62
2024/02/05 10:01:18;;;;;;;23.85;5.72;;;11.30;99.20;;;;;;4264804;27;20159;-62
2024/02/05 10:03:22;;;;;;;23.73;6.65;;;11.30;98.90;;;;;;4246240;27;20039;-64
2024/02/05 10:05:26;;;;;;;19.60;4.83;;;11.30;98.90;;;;;;4265344;27;20045;-64
2024/02/05 10:07:31;;;;;;;16.05;5.32;;;11.20;98.90;;;;;;4246552;27;20116;-63
2024/02/05 10:09:36;;;;;;;21.08;4.85;;;11.30;99.00;;;;;;4265107;27;20043;-63
2024/02/05 10:11:46;;;;;;;19.88;5.38;;;11.40;98.50;;;;;;4266464;27;20070;-63
2024/02/05 10:13:48;;;;;;;28.10;6.20;;;11.40;98.50;;;;;;4268304;27;20042;-69
2024/02/05 10:15:50;;;;;;;25.40;6.78;;;11.40;98.30;;;;;;4251663;27;20054;-67
2024/02/05 10:17:52;;;;;;;28.52;7.80;;;11.40;98.30;;;;;;4251035;27;20092;-68
2024/02/05 10:19:56;;;;;;;26.92;7.18;;;11.40;98.60;;;;;;4269198;27;20047;-64
2024/02/05 10:21:58;;;;;;;26.98;5.85;;;11.40;98.50;;;;;;4268245;27;20053;-66
2024/02/05 10:24:02;;;;;;;32.35;7.00;;;11.30;98.40;;;;;;4268504;27;20047;-63
2024/02/05 10:26:07;;;;;;;26.45;6.72;;;11.10;98.20;;;;;;4268637;27;20053;-63
2024/02/05 10:28:10;;;;;;;27.67;7.07;;;11.20;98.70;;;;;;4268429;27;20067;-62
2024/02/05 10:30:16;;;;;;;25.42;7.85;;;11.30;98.90;;;;;;4268113;27;20054;-63
2024/02/05 10:32:22;;;;;;;24.13;7.68;;;11.30;98.60;;;;;;4267539;27;20123;-63